createdAt,value
2023-01-20T00:00:38.280Z,100043.31
2023-01-20T00:05:40.375Z,100044.16
2023-01-20T00:10:42.395Z,100046.78
2023-01-20T00:15:44.713Z,100044.13
2023-01-20T00:20:46.857Z,100045.84
2023-01-20T00:25:48.817Z,100051.09
2023-01-20T00:30:50.851Z,100051.91
2023-01-20T00:35:52.950Z,100048.38
2023-01-20T00:40:55.445Z,100061.47
2023-01-20T00:45:57.445Z,100063.16
2023-01-20T00:50:59.461Z,100074.53
2023-01-20T00:56:01.565Z,100074.50
2023-01-20T01:01:04.037Z,100073.56
2023-01-20T01:06:14.600Z,100083.19
2023-01-20T01:11:16.612Z,100078.78
2023-01-20T01:16:18.702Z,100077.88
2023-01-20T01:21:23.747Z,100094.41
2023-01-20T01:26:25.813Z,100109.25
2023-01-20T01:31:27.859Z,100113.53
2023-01-20T01:36:29.867Z,100120.50
2023-01-20T01:41:32.102Z,100119.66
2023-01-20T01:46:34.510Z,100104.59
2023-01-20T01:51:41.905Z,100118.66
2023-01-20T01:56:46.707Z,100124.75
2023-01-20T02:07:53.677Z,100117.69
2023-01-20T02:12:56.114Z,100124.66
2023-01-20T02:18:37.155Z,100125.50
2023-01-20T02:24:14.559Z,100133.31
2023-01-20T02:29:31.737Z,100135.88
2023-01-20T02:34:44.135Z,100115.72
2023-01-20T02:40:17.382Z,100122.69
2023-01-20T02:45:45.523Z,100125.31
2023-01-20T02:50:56.712Z,100118.25
2023-01-20T02:55:59.281Z,100125.16
2023-01-20T03:01:30.832Z,100125.16
2023-01-20T03:06:38.287Z,100126.88
2023-01-20T03:11:47.355Z,100133.72
2023-01-20T03:16:50.623Z,100138.03
2023-01-20T03:21:52.890Z,100150.09
2023-01-20T03:26:55.104Z,100157.88
2023-01-20T03:32:00.116Z,100158.63
2023-01-20T03:37:04.227Z,100169.97
2023-01-20T03:42:16.192Z,100166.38
2023-01-20T03:47:18.209Z,100190.66
2023-01-20T03:52:47.064Z,100179.19
2023-01-20T03:57:58.883Z,100185.22
2023-01-20T04:03:05.586Z,100195.50
2023-01-20T04:08:10.352Z,100210.28
2023-01-20T04:13:12.476Z,100229.28
2023-01-20T04:18:21.371Z,100231.81
2023-01-20T04:24:11.735Z,100233.38
2023-01-20T04:29:13.746Z,100245.41
2023-01-20T04:34:16.081Z,100254.88
2023-01-20T04:39:18.074Z,100253.91
2023-01-20T04:44:20.101Z,100259.03
2023-01-20T04:49:22.148Z,100261.53
2023-01-20T04:54:24.233Z,100259.69
2023-01-20T04:59:26.795Z,100262.25
2023-01-20T05:04:28.946Z,100259.53
2023-01-20T05:09:30.932Z,100271.66
2023-01-20T05:14:32.978Z,100283.84
2023-01-20T05:19:34.991Z,100303.84
2023-01-20T05:24:37.058Z,100304.63
2023-01-20T05:29:39.080Z,100328.97
2023-01-20T05:34:41.133Z,100339.38
2023-01-20T05:39:43.173Z,100347.13
2023-01-20T05:44:45.254Z,100360.16
2023-01-20T05:49:47.465Z,100381.13
2023-01-20T05:54:49.564Z,100396.72
2023-01-20T05:59:52.596Z,100402.84
2023-01-20T06:04:56.332Z,100413.25
2023-01-20T06:09:58.740Z,100424.53
2023-01-20T06:15:00.787Z,100428.03
2023-01-20T06:20:04.676Z,100439.38
2023-01-20T06:25:07.092Z,100436.69
2023-01-20T06:30:09.986Z,100442.75
2023-01-20T06:35:12.357Z,100439.25
2023-01-20T06:40:15.363Z,100439.16
2023-01-20T06:45:17.527Z,100433.16
2023-01-20T06:50:19.769Z,100429.66
2023-01-20T06:55:22.155Z,100437.44
2023-01-20T07:00:24.512Z,100456.59
2023-01-20T07:05:26.578Z,100454.03
2023-01-20T07:10:28.669Z,100462.44
2023-01-20T07:15:30.813Z,100486.06
2023-01-20T07:20:32.976Z,100492.31
2023-01-20T07:25:35.122Z,100488.69
2023-01-20T07:30:37.520Z,100483.19
2023-01-20T07:35:39.750Z,100493.56
2023-01-20T07:40:41.834Z,100504.09
2023-01-20T07:45:44.909Z,100500.81
2023-01-20T07:50:47.426Z,100511.91
2023-01-20T07:55:49.612Z,100520.03
2023-01-20T08:00:51.879Z,100522.44
2023-01-20T08:05:54.133Z,100516.59
2023-01-20T08:10:56.318Z,100498.84
2023-01-20T08:16:05.844Z,100517.09
2023-01-20T08:21:16.492Z,100523.84
2023-01-20T08:26:19.795Z,100515.38
2023-01-20T08:31:26.098Z,100518.25
2023-01-20T08:36:31.270Z,100532.41
2023-01-20T08:41:36.840Z,100543.38
2023-01-20T08:46:41.841Z,100551.50
2023-01-20T08:51:45.367Z,100552.97
2023-01-20T08:56:51.370Z,100560.44
2023-01-20T09:01:53.476Z,100541.34
2023-01-20T09:06:55.581Z,100536.91
2023-01-20T09:11:57.728Z,100542.13
2023-01-20T09:17:02.003Z,100560.34
2023-01-20T09:22:04.459Z,100574.88
2023-01-20T09:27:06.446Z,100578.97
2023-01-20T09:32:08.662Z,100584.22
2023-01-20T09:37:29.064Z,100587.56
2023-01-20T09:43:09.975Z,100591.72
2023-01-20T09:48:55.522Z,100596.41
2023-01-20T09:54:07.627Z,100605.78
2023-01-20T09:59:26.908Z,100610.69
2023-01-20T10:04:45.883Z,100616.09
2023-01-20T10:10:24.631Z,100606.97
2023-01-20T10:15:36.404Z,100611.94
2023-01-20T10:20:41.944Z,100614.31
2023-01-20T10:26:10.643Z,100620.63
2023-01-20T10:31:18.268Z,100621.03
2023-01-20T10:36:27.687Z,100620.22
2023-01-20T10:41:32.862Z,100627.75
2023-01-20T10:47:05.081Z,100626.28
2023-01-20T10:52:13.267Z,100637.03
2023-01-20T10:57:16.468Z,100645.03
2023-01-20T11:02:25.125Z,100643.66
2023-01-20T11:07:29.107Z,100635.75
2023-01-20T11:12:37.272Z,100644.13
2023-01-20T11:17:39.447Z,100636.47
2023-01-20T11:22:49.787Z,100646.50
2023-01-20T11:27:53.025Z,100651.47
2023-01-20T11:33:14.448Z,100648.69
2023-01-20T14:01:15.278Z,100757.00
2023-01-20T14:06:24.067Z,100755.06
2023-01-20T14:11:28.019Z,100750.47
2023-01-20T14:16:42.079Z,100739.81
2023-01-20T14:21:44.227Z,100745.13
2023-01-20T14:26:46.318Z,100748.56
2023-01-20T14:31:48.587Z,100751.00
2023-01-20T14:36:51.952Z,100745.38
2023-01-20T14:41:57.047Z,100763.69
2023-01-20T14:47:02.788Z,100775.94
2023-01-20T14:57:31.720Z,100809.03
2023-01-20T15:02:37.990Z,100816.81
2023-01-20T15:07:40.148Z,100814.84
2023-01-20T15:12:45.243Z,100823.50
2023-01-20T15:18:21.750Z,100825.00
2023-01-20T15:23:39.230Z,100830.06
2023-01-20T15:28:45.191Z,100839.56
2023-01-20T15:33:47.297Z,100839.38
2023-01-20T15:38:49.959Z,100840.97
2023-01-20T15:43:52.812Z,100849.53
2023-01-20T15:48:54.844Z,100866.91
2023-01-20T15:53:57.006Z,100865.78
2023-01-20T15:58:59.550Z,100876.22
2023-01-20T16:04:01.841Z,100890.97
2023-01-20T16:09:16.507Z,100891.66
2023-01-20T16:14:18.954Z,100895.69
2023-01-20T16:19:21.127Z,100910.53
2023-01-20T16:24:23.163Z,100910.34
2023-01-20T16:29:25.450Z,100910.16
2023-01-20T16:34:27.637Z,100914.31
2023-01-20T16:39:30.075Z,100918.50
2023-01-20T16:44:32.256Z,100921.88
2023-01-20T16:49:34.613Z,100928.75
2023-01-20T16:54:37.257Z,100922.44
2023-01-20T16:59:39.579Z,100913.22
2023-01-20T17:04:41.955Z,100917.19
2023-01-20T17:09:44.204Z,100935.34
2023-01-20T17:14:46.724Z,100922.72
2023-01-20T17:19:49.108Z,100925.03
2023-01-20T17:24:52.094Z,100929.34
2023-01-20T17:29:54.987Z,100929.13
2023-01-20T17:34:57.916Z,100936.72
2023-01-20T17:40:05.802Z,100923.53
2023-01-20T17:45:10.383Z,100907.06
2023-01-20T17:50:15.191Z,100923.38
2023-01-20T17:55:18.364Z,100924.25
2023-01-20T18:00:21.626Z,100933.72
2023-01-20T18:05:24.857Z,100933.19
2023-01-20T18:10:28.205Z,100937.88
2023-01-20T18:15:30.893Z,100940.59
2023-01-20T18:20:33.957Z,100954.09
2023-01-20T18:25:36.888Z,100956.69
2023-01-20T18:30:40.482Z,100963.84
2023-01-20T18:35:44.797Z,100968.38
2023-01-20T18:40:47.983Z,100970.25
2023-01-20T18:45:54.327Z,100961.44
2023-01-20T18:51:01.520Z,100965.94
2023-01-20T18:56:13.470Z,100974.84
2023-01-20T19:01:25.351Z,100979.22
2023-01-20T19:06:33.307Z,100981.81
2023-01-20T19:11:41.684Z,100976.44
2023-01-20T19:16:49.633Z,100962.19
2023-01-20T19:21:53.988Z,100983.31
2023-01-20T19:26:58.916Z,100969.91
2023-01-20T19:32:07.108Z,100983.91
2023-01-20T19:37:10.822Z,100979.25
2023-01-20T19:42:14.758Z,100984.38
2023-01-20T19:47:18.043Z,100984.22
2023-01-20T19:52:20.946Z,100999.00
2023-01-20T19:57:24.574Z,101008.47
2023-01-20T20:02:31.551Z,100991.47
2023-01-20T20:07:46.094Z,101008.94
2023-01-20T20:12:57.701Z,100999.88
2023-01-20T20:18:00.883Z,100997.84
2023-01-20T20:23:05.994Z,101000.28
2023-01-20T20:28:10.138Z,101003.56
2023-01-20T20:33:13.835Z,101010.41
2023-01-20T20:38:17.320Z,101008.38
2023-01-20T20:43:24.299Z,101013.50
2023-01-20T20:48:28.649Z,101005.28
2023-01-20T20:53:32.566Z,101007.66
2023-01-20T20:58:43.343Z,100988.97
2023-01-20T21:03:52.219Z,100991.38
2023-01-20T21:08:55.574Z,100994.66
2023-01-20T21:13:58.660Z,100990.06
2023-01-20T21:19:03.705Z,100998.72
2023-01-20T21:24:11.924Z,100991.41
2023-01-20T21:29:27.332Z,100989.47
2023-01-20T21:34:33.431Z,100994.47
2023-01-20T21:39:38.825Z,100999.50
2023-01-20T21:44:46.018Z,100999.31
2023-01-20T21:50:07.610Z,101011.41
2023-01-20T21:55:20.538Z,101010.34
2023-01-20T22:00:23.526Z,100996.03
2023-01-20T22:05:26.108Z,100995.88
2023-01-20T22:10:29.699Z,100991.31
2023-01-20T22:15:40.362Z,100994.63
2023-01-20T22:20:44.726Z,101004.97
2023-01-20T22:25:59.379Z,100999.53
2023-01-20T22:31:10.665Z,100995.88
2023-01-20T22:36:13.084Z,100990.41
2023-01-20T22:41:18.862Z,100985.84
2023-01-20T22:46:22.355Z,100975.13
2023-01-20T22:51:33.826Z,100962.63
2023-01-20T22:56:36.198Z,100964.28
2023-01-20T23:01:38.234Z,100961.47
2023-01-20T23:06:40.428Z,100941.97
2023-01-20T23:11:42.495Z,100949.78
2023-01-20T23:16:44.673Z,100949.56
2023-01-20T23:21:46.802Z,100935.41
2023-01-20T23:26:50.929Z,100917.72
2023-01-20T23:31:55.602Z,100914.94
2023-01-20T23:36:57.734Z,100914.75
2023-01-20T23:41:59.896Z,100925.09
2023-01-20T23:47:01.944Z,100919.72
2023-01-20T23:52:05.097Z,100910.72
2023-01-20T23:57:07.157Z,100899.19
